createdAt,value
2017-04-15T00:00:28.966Z,13.88
2017-04-15T00:01:09.425Z,13.92
2017-04-15T00:01:49.883Z,13.97
2017-04-15T00:02:30.329Z,13.95
2017-04-15T00:03:10.797Z,13.91
2017-04-15T00:03:51.233Z,13.85
2017-04-15T00:04:31.663Z,13.92
2017-04-15T00:05:12.127Z,13.95
2017-04-15T00:05:52.608Z,13.87
2017-04-15T00:07:45.191Z,13.96
2017-04-15T00:08:25.650Z,13.96
2017-04-15T00:09:06.114Z,13.97
2017-04-15T00:09:46.561Z,13.99
2017-04-15T00:10:27.019Z,13.92
2017-04-15T00:12:04.374Z,13.91
2017-04-15T00:12:44.837Z,13.91
2017-04-15T00:13:25.346Z,13.96
2017-04-15T00:14:05.792Z,13.95
2017-04-15T00:14:46.276Z,13.89
2017-04-15T00:15:26.706Z,13.97
2017-04-15T00:16:07.156Z,13.92
2017-04-15T00:16:47.614Z,14
2017-04-15T00:17:28.074Z,13.91
2017-04-15T00:18:08.553Z,13.96
2017-04-15T00:20:01.108Z,13.99
2017-04-15T00:20:41.582Z,13.89
2017-04-15T00:21:22.046Z,14
2017-04-15T00:22:02.515Z,13.89
2017-04-15T00:24:00.167Z,13.97
2017-04-15T00:24:40.614Z,13.91
2017-04-15T00:25:21.091Z,13.91
2017-04-15T00:26:01.565Z,13.91
2017-04-15T00:26:42.048Z,13.88
2017-04-15T00:27:22.529Z,13.91
2017-04-15T00:28:03.001Z,13.92
2017-04-15T00:29:51.087Z,13.84
2017-04-15T00:30:31.292Z,13.88
2017-04-15T00:32:18.820Z,13.89
2017-04-15T00:32:59.211Z,13.75
2017-04-15T00:33:39.714Z,13.84
2017-04-15T00:34:20.176Z,13.84
2017-04-15T00:35:00.628Z,13.89
2017-04-15T00:35:41.106Z,13.77
2017-04-15T00:36:21.564Z,13.84
2017-04-15T00:37:02.011Z,13.79
2017-04-15T00:38:39.366Z,13.67
2017-04-15T00:39:19.869Z,13.59
2017-04-15T00:40:00.351Z,13.54
2017-04-15T00:40:40.766Z,13.62
2017-04-15T00:41:21.237Z,13.63
2017-04-15T00:42:01.682Z,13.59
2017-04-15T00:42:42.137Z,13.6
2017-04-15T00:43:22.584Z,13.55
2017-04-15T00:44:03.055Z,13.45
2017-04-15T00:44:43.522Z,13.46
2017-04-15T00:45:23.968Z,13.42
2017-04-15T00:46:04.425Z,13.36
2017-04-15T00:46:44.907Z,13.38
2017-04-15T00:47:25.398Z,13.36
2017-04-15T00:48:05.883Z,13.25
2017-04-15T00:48:46.325Z,13.29
2017-04-15T00:49:26.802Z,13.23
2017-04-15T00:50:07.223Z,13.22
2017-04-15T00:50:47.684Z,13.2
2017-04-15T00:51:28.118Z,13.2
2017-04-15T00:52:08.583Z,13.22
2017-04-15T00:52:49.030Z,13.12
2017-04-15T00:53:29.474Z,13.07
2017-04-15T00:55:22.012Z,13.12
2017-04-15T00:56:02.489Z,13.05
2017-04-15T00:58:15.178Z,13
2017-04-15T00:58:55.659Z,12.86
2017-04-15T00:59:36.156Z,12.77
2017-04-15T01:00:16.638Z,12.79
2017-04-15T01:00:57.080Z,12.79
2017-04-15T01:02:49.669Z,12.77
2017-04-15T01:03:30.103Z,12.75
2017-04-15T01:04:10.557Z,12.79
2017-04-15T01:04:50.989Z,12.7
2017-04-15T01:05:31.442Z,12.78
2017-04-15T01:06:11.919Z,12.67
2017-04-15T01:06:52.370Z,12.7
2017-04-15T01:08:44.921Z,12.62
2017-04-15T01:09:25.377Z,12.56
2017-04-15T01:10:05.834Z,12.57
2017-04-15T01:10:46.290Z,12.54
2017-04-15T01:12:33.744Z,12.5
2017-04-15T01:13:14.215Z,12.67
2017-04-15T01:13:54.680Z,12.59
2017-04-15T01:14:35.157Z,12.49
2017-04-15T01:15:15.630Z,12.39
2017-04-15T01:15:56.075Z,12.45
2017-04-15T01:16:36.512Z,12.5
2017-04-15T01:17:17.025Z,12.49
2017-04-15T01:17:57.454Z,12.47
2017-04-15T01:19:34.818Z,12.49
2017-04-15T01:20:15.296Z,12.45
2017-04-15T01:20:55.784Z,12.49
2017-04-15T01:21:36.284Z,12.49
2017-04-15T01:22:16.763Z,12.57
2017-04-15T01:22:57.218Z,12.52
2017-04-15T01:23:37.670Z,12.47
2017-04-15T01:24:18.096Z,12.53
2017-04-15T01:26:30.819Z,12.45
2017-04-15T01:27:11.283Z,12.52
2017-04-15T01:27:51.763Z,12.49
2017-04-15T01:28:32.236Z,12.53
2017-04-15T01:29:12.664Z,12.46
2017-04-15T01:29:53.169Z,12.49
2017-04-15T01:30:33.605Z,12.46
2017-04-15T01:31:14.131Z,12.49
2017-04-15T01:31:54.567Z,12.5
2017-04-15T01:32:35.039Z,12.42
2017-04-15T01:34:28.085Z,12.54
2017-04-15T01:35:08.408Z,12.5
2017-04-15T01:35:48.860Z,12.5
2017-04-15T01:36:29.308Z,12.42
2017-04-15T01:37:09.759Z,12.5
2017-04-15T01:37:50.214Z,12.46
2017-04-15T01:38:30.666Z,12.45
2017-04-15T01:39:11.109Z,12.49
2017-04-15T01:39:51.553Z,12.47
2017-04-15T01:40:32.023Z,12.34
2017-04-15T01:41:12.496Z,12.37
2017-04-15T01:41:52.923Z,12.34
2017-04-15T01:42:33.375Z,12.34
2017-04-15T01:43:13.866Z,12.31
2017-04-15T01:45:01.323Z,12.19
2017-04-15T01:45:41.834Z,12.14
2017-04-15T01:46:22.230Z,12.1
2017-04-15T01:47:02.662Z,12.12
2017-04-15T01:47:43.121Z,12.14
2017-04-15T01:48:23.563Z,12.1
2017-04-15T01:49:04.005Z,12.05
2017-04-15T01:49:44.468Z,12.04
2017-04-15T01:51:32.002Z,11.96
2017-04-15T01:52:12.409Z,11.94
2017-04-15T01:52:52.913Z,11.88
2017-04-15T01:53:33.392Z,11.85
2017-04-15T01:54:13.847Z,11.86
2017-04-15T01:54:54.287Z,11.79
2017-04-15T01:56:31.808Z,11.78
2017-04-15T01:57:12.171Z,11.64
2017-04-15T01:57:52.607Z,11.69
2017-04-15T01:59:30.005Z,11.62
2017-04-15T02:00:10.392Z,11.64
2017-04-15T02:00:50.831Z,11.7
2017-04-15T02:01:31.261Z,11.65
2017-04-15T02:02:11.711Z,11.75
2017-04-15T02:03:49.167Z,11.67
2017-04-15T02:04:29.523Z,11.62
2017-04-15T02:06:27.776Z,11.58
2017-04-15T02:07:08.140Z,11.58
2017-04-15T02:07:48.592Z,11.6
2017-04-15T02:08:29.015Z,11.62
2017-04-15T02:09:09.492Z,11.65
2017-04-15T02:09:49.947Z,11.55
2017-04-15T02:10:30.372Z,11.6
2017-04-15T02:11:10.807Z,11.69
2017-04-15T02:11:51.273Z,11.62
2017-04-15T02:12:31.719Z,11.58
2017-04-15T02:14:29.470Z,11.61
2017-04-15T02:15:09.849Z,11.65
2017-04-15T02:15:50.331Z,11.64
2017-04-15T02:16:30.792Z,11.69
2017-04-15T02:17:11.272Z,11.62
2017-04-15T02:17:51.710Z,11.58
2017-04-15T02:19:44.261Z,11.6
2017-04-15T02:20:24.722Z,11.55
2017-04-15T02:21:05.175Z,11.6
2017-04-15T02:21:45.636Z,11.69
2017-04-15T02:22:26.075Z,11.58
2017-04-15T02:23:06.538Z,11.64
2017-04-15T02:24:54.018Z,11.65
2017-04-15T02:25:34.474Z,11.76
2017-04-15T02:26:14.924Z,11.67
2017-04-15T02:26:55.389Z,11.72
2017-04-15T02:27:35.841Z,11.73
2017-04-15T02:28:16.324Z,11.69
2017-04-15T02:28:56.767Z,11.73
2017-04-15T02:29:37.241Z,11.64
2017-04-15T02:30:17.699Z,11.67
2017-04-15T02:30:58.144Z,11.64
2017-04-15T02:31:38.580Z,11.69
2017-04-15T02:32:19.023Z,11.7
2017-04-15T02:34:11.652Z,11.69
2017-04-15T02:34:52.045Z,11.7
2017-04-15T02:35:32.459Z,11.61
2017-04-15T02:36:12.909Z,11.7
2017-04-15T02:36:53.410Z,11.6
2017-04-15T02:37:33.896Z,11.61
2017-04-15T02:38:14.346Z,11.61
2017-04-15T02:38:54.813Z,11.61
2017-04-15T02:39:35.270Z,11.6
2017-04-15T02:40:15.723Z,11.64
2017-04-15T02:40:56.186Z,11.61
2017-04-15T02:41:36.647Z,11.64
2017-04-15T02:42:17.104Z,11.55
2017-04-15T02:42:57.567Z,11.64
2017-04-15T02:43:38.012Z,11.55
2017-04-15T02:45:30.596Z,11.6
2017-04-15T02:46:11.052Z,11.52
2017-04-15T02:46:51.557Z,11.58
2017-04-15T02:47:32.064Z,11.6
2017-04-15T02:48:12.531Z,11.51
2017-04-15T02:48:53.000Z,11.54
2017-04-15T02:49:33.405Z,11.62
2017-04-15T02:50:13.867Z,11.54
2017-04-15T02:50:54.322Z,11.54
2017-04-15T02:51:34.783Z,11.6
2017-04-15T02:52:15.245Z,11.54
2017-04-15T02:52:55.732Z,11.54
2017-04-15T02:53:36.185Z,11.6
2017-04-15T02:54:16.658Z,11.67
2017-04-15T02:56:29.413Z,11.69
2017-04-15T02:57:09.849Z,11.6
2017-04-15T02:57:50.288Z,11.61
2017-04-15T02:59:47.915Z,11.6
2017-04-15T03:00:28.397Z,11.64
2017-04-15T03:01:08.866Z,11.61
2017-04-15T03:01:49.355Z,11.61
2017-04-15T03:02:29.809Z,11.58
2017-04-15T03:03:10.224Z,11.54
2017-04-15T03:03:50.688Z,11.64
2017-04-15T03:04:31.126Z,11.61
2017-04-15T03:05:11.590Z,11.62
2017-04-15T03:05:52.033Z,11.54
2017-04-15T03:06:32.483Z,11.58
2017-04-15T03:07:12.970Z,11.57
2017-04-15T03:07:53.410Z,11.6
2017-04-15T03:08:33.890Z,11.6
2017-04-15T03:09:14.365Z,11.51
2017-04-15T03:09:54.814Z,11.51
2017-04-15T03:10:35.247Z,11.57
2017-04-15T03:11:15.717Z,11.57
2017-04-15T03:13:13.355Z,11.44
2017-04-15T03:13:53.814Z,11.43
2017-04-15T03:14:34.271Z,11.42
2017-04-15T03:15:14.730Z,11.36
2017-04-15T03:17:27.437Z,11.36
2017-04-15T03:18:07.921Z,11.35
2017-04-15T03:18:48.385Z,11.37
2017-04-15T03:19:28.841Z,11.35
2017-04-15T03:21:21.384Z,11.29
2017-04-15T03:22:01.860Z,11.27
2017-04-15T03:22:42.340Z,11.22
2017-04-15T03:23:22.786Z,11.27
2017-04-15T03:24:03.266Z,11.18
2017-04-15T03:26:15.946Z,11.15
2017-04-15T03:26:56.408Z,11.19
2017-04-15T03:27:36.911Z,11.18
2017-04-15T03:28:17.370Z,11.11
2017-04-15T03:28:57.830Z,11.17
2017-04-15T03:29:38.301Z,11.15
2017-04-15T03:30:18.765Z,11.1
2017-04-15T03:32:16.385Z,11.15
2017-04-15T03:32:56.899Z,11.06
2017-04-15T03:33:37.367Z,11.09
2017-04-15T03:34:17.854Z,11.07
2017-04-15T03:34:59.246Z,11.1
2017-04-15T03:35:39.683Z,11.06
2017-04-15T03:36:20.102Z,11.09
2017-04-15T03:37:57.445Z,11.06
2017-04-15T03:38:38.055Z,11.09
2017-04-15T03:39:18.538Z,11.06
2017-04-15T03:39:59.004Z,11.04
2017-04-15T03:40:39.444Z,11.11
2017-04-15T03:41:19.897Z,11.15
2017-04-15T03:42:00.352Z,11.14
2017-04-15T03:42:40.851Z,11.17
2017-04-15T03:44:28.419Z,11.18
2017-04-15T03:45:08.772Z,11.18
2017-04-15T03:45:49.214Z,11.14
2017-04-15T03:47:47.384Z,11.15
2017-04-15T03:48:28.000Z,11.15
2017-04-15T03:49:08.458Z,11.18
2017-04-15T03:49:48.942Z,11.24
2017-04-15T03:50:29.392Z,11.25
2017-04-15T03:52:27.104Z,11.29
2017-04-15T03:53:07.510Z,11.29
2017-04-15T03:53:47.991Z,11.28
2017-04-15T03:55:35.437Z,11.35
2017-04-15T03:56:15.930Z,11.28
2017-04-15T03:56:56.381Z,11.35
2017-04-15T03:57:36.863Z,11.28
2017-04-15T03:58:17.310Z,11.37
2017-04-15T03:58:57.798Z,11.35
2017-04-15T03:59:38.254Z,11.39
2017-04-15T04:00:18.692Z,11.32
2017-04-15T04:00:59.199Z,11.35
2017-04-15T04:01:39.616Z,11.44
2017-04-15T04:02:20.045Z,11.4
2017-04-15T04:03:00.491Z,11.36
2017-04-15T04:03:40.947Z,11.46
2017-04-15T04:04:21.412Z,11.39
2017-04-15T04:05:01.871Z,11.39
2017-04-15T04:05:42.291Z,11.46
2017-04-15T04:06:22.713Z,11.4
2017-04-15T04:08:20.351Z,11.39
2017-04-15T04:09:00.814Z,11.4
2017-04-15T04:09:41.311Z,11.4
2017-04-15T04:10:21.774Z,11.37
2017-04-15T04:11:02.264Z,11.37
2017-04-15T04:11:42.731Z,11.37
2017-04-15T04:12:23.183Z,11.33
2017-04-15T04:13:03.637Z,11.33
2017-04-15T04:13:44.098Z,11.32
2017-04-15T04:14:24.553Z,11.33
2017-04-15T04:15:05.011Z,11.28
2017-04-15T04:15:45.469Z,11.18
2017-04-15T04:16:25.927Z,11.18
2017-04-15T04:18:23.995Z,11.15
2017-04-15T04:19:04.452Z,11.03
2017-04-15T04:20:51.928Z,11.03
2017-04-15T04:21:32.409Z,11.06
2017-04-15T04:22:12.881Z,11.03
2017-04-15T04:22:53.353Z,10.88
2017-04-15T04:23:33.806Z,11
2017-04-15T04:24:14.267Z,11.03
2017-04-15T04:24:54.760Z,11
2017-04-15T04:25:35.210Z,11.02
2017-04-15T04:26:15.640Z,11.09
2017-04-15T04:26:56.093Z,11.09
2017-04-15T04:28:33.694Z,11.07
2017-04-15T04:29:14.802Z,11.07
2017-04-15T04:29:55.260Z,11.15
2017-04-15T04:30:35.700Z,11.15
2017-04-15T04:32:28.233Z,11.19
2017-04-15T04:33:08.702Z,11.22
2017-04-15T04:33:49.153Z,11.18
2017-04-15T04:34:29.648Z,11.24
2017-04-15T04:35:10.074Z,11.27
2017-04-15T04:35:50.531Z,11.22
2017-04-15T04:36:30.952Z,11.28
2017-04-15T04:37:11.374Z,11.28
2017-04-15T04:38:48.716Z,11.29
2017-04-15T04:39:29.158Z,11.33
2017-04-15T04:40:09.610Z,11.32
2017-04-15T04:40:50.093Z,11.4
2017-04-15T04:41:30.560Z,11.36
2017-04-15T04:42:11.013Z,11.42
2017-04-15T04:42:51.462Z,11.47
2017-04-15T04:43:31.955Z,11.42
2017-04-15T04:44:12.403Z,11.4
2017-04-15T04:44:52.909Z,11.37
2017-04-15T04:45:33.331Z,11.4
2017-04-15T04:46:13.754Z,11.44
2017-04-15T04:46:54.217Z,11.55
2017-04-15T04:47:34.676Z,11.52
2017-04-15T04:48:15.100Z,11.49
2017-04-15T04:48:55.518Z,11.54
2017-04-15T04:49:35.972Z,11.6
2017-04-15T04:50:16.400Z,11.54
2017-04-15T04:50:56.844Z,11.57
2017-04-15T04:51:37.346Z,11.58
2017-04-15T04:52:17.756Z,11.6
2017-04-15T04:54:31.010Z,11.57
2017-04-15T04:55:11.956Z,11.69
2017-04-15T04:55:52.409Z,11.67
2017-04-15T04:58:05.227Z,11.65
2017-04-15T04:58:45.588Z,11.78
2017-04-15T05:00:38.142Z,11.69
2017-04-15T05:01:18.581Z,11.73
2017-04-15T05:01:59.033Z,11.7
2017-04-15T05:02:39.516Z,11.72
2017-04-15T05:03:19.958Z,11.65
2017-04-15T05:04:00.416Z,11.72
2017-04-15T05:04:40.931Z,11.7
2017-04-15T05:06:28.363Z,11.73
2017-04-15T05:07:08.857Z,11.73
2017-04-15T05:07:49.318Z,11.69
2017-04-15T05:10:02.000Z,11.72
2017-04-15T05:10:42.481Z,11.67
2017-04-15T05:11:22.973Z,11.67
2017-04-15T05:12:03.463Z,11.76
2017-04-15T05:12:43.940Z,11.82
2017-04-15T05:13:24.363Z,11.79
2017-04-15T05:14:04.790Z,11.7
2017-04-15T05:14:45.260Z,11.69
2017-04-15T05:16:32.830Z,11.69
2017-04-15T05:17:13.183Z,11.65
2017-04-15T05:17:53.647Z,11.69
2017-04-15T05:18:34.092Z,11.64
2017-04-15T05:19:14.572Z,11.69
2017-04-15T05:19:55.013Z,11.67
2017-04-15T05:20:35.459Z,11.65
2017-04-15T05:21:15.920Z,11.8
2017-04-15T05:21:56.365Z,11.67
2017-04-15T05:22:36.793Z,11.67
2017-04-15T05:23:17.216Z,11.75
2017-04-15T05:23:57.683Z,11.78
2017-04-15T05:24:38.128Z,11.67
2017-04-15T05:25:18.563Z,11.75
2017-04-15T05:25:59.000Z,11.8
2017-04-15T05:26:39.476Z,11.78
2017-04-15T05:27:19.928Z,11.86
2017-04-15T05:28:00.386Z,11.88
2017-04-15T05:29:47.926Z,11.88
2017-04-15T05:30:28.335Z,11.83
2017-04-15T05:31:08.797Z,11.88
2017-04-15T05:31:49.276Z,11.82
2017-04-15T05:32:29.722Z,11.86
2017-04-15T05:33:10.144Z,11.88
2017-04-15T05:33:50.621Z,11.88
2017-04-15T05:34:31.060Z,11.8
2017-04-15T05:35:11.505Z,11.88
2017-04-15T05:35:52.946Z,11.9
2017-04-15T05:36:33.369Z,11.82
2017-04-15T05:38:10.725Z,11.85
2017-04-15T05:38:51.176Z,11.9
2017-04-15T05:39:31.666Z,11.98
2017-04-15T05:40:12.101Z,11.96
2017-04-15T05:40:52.523Z,11.95
2017-04-15T05:41:32.991Z,11.91
2017-04-15T05:42:13.425Z,12.01
2017-04-15T05:42:53.897Z,11.98
2017-04-15T05:44:31.260Z,11.99
2017-04-15T05:45:11.723Z,12.07
2017-04-15T05:47:09.456Z,11.9
2017-04-15T05:47:49.816Z,11.91
2017-04-15T05:48:30.275Z,12.02
2017-04-15T05:49:10.707Z,11.9
2017-04-15T05:49:51.188Z,11.9
2017-04-15T05:50:31.646Z,11.91
2017-04-15T05:52:09.000Z,11.98
2017-04-15T05:52:49.458Z,12.02
2017-04-15T05:53:29.948Z,12.02
2017-04-15T05:54:10.408Z,12.01
2017-04-15T05:54:50.820Z,12.05
2017-04-15T05:55:31.259Z,12.07
2017-04-15T05:56:11.735Z,12.07
2017-04-15T05:57:59.205Z,12.07
2017-04-15T05:58:39.669Z,12.19
2017-04-15T05:59:20.132Z,12.12
2017-04-15T06:00:00.585Z,12.17
2017-04-15T06:01:58.235Z,12.24
2017-04-15T06:02:38.677Z,12.32
2017-04-15T06:03:19.140Z,12.27
2017-04-15T06:05:16.766Z,12.23
2017-04-15T06:05:57.233Z,12.21
2017-04-15T06:07:49.758Z,12.14
2017-04-15T06:08:30.256Z,12.23
2017-04-15T06:09:10.715Z,12.19
2017-04-15T06:09:51.174Z,12.23
2017-04-15T06:10:31.608Z,12.2
2017-04-15T06:11:12.042Z,12.17
2017-04-15T06:11:52.493Z,12.27
2017-04-15T06:12:32.935Z,12.32
2017-04-15T06:14:30.525Z,12.45
2017-04-15T06:15:11.015Z,12.53
2017-04-15T06:15:51.437Z,12.46
2017-04-15T06:16:31.868Z,12.59
2017-04-15T06:17:12.330Z,12.56
2017-04-15T06:17:52.731Z,12.59
2017-04-15T06:18:33.185Z,12.52
2017-04-15T06:20:10.548Z,12.62
2017-04-15T06:20:51.052Z,12.54
2017-04-15T06:21:31.500Z,12.64
2017-04-15T06:22:11.964Z,12.68
2017-04-15T06:22:52.392Z,12.7
2017-04-15T06:23:32.848Z,12.77
2017-04-15T06:24:13.337Z,12.65
2017-04-15T06:24:53.790Z,12.75
2017-04-15T06:25:34.235Z,12.68
2017-04-15T06:27:12.530Z,12.72
2017-04-15T06:27:52.669Z,12.7
2017-04-15T06:28:33.120Z,12.57
2017-04-15T06:29:13.577Z,12.72
2017-04-15T06:29:54.028Z,12.79
2017-04-15T06:30:34.480Z,12.9
2017-04-15T06:31:14.961Z,12.87
2017-04-15T06:31:55.413Z,12.96
2017-04-15T06:32:35.881Z,13.04
2017-04-15T06:33:16.399Z,13.26
2017-04-15T06:33:56.817Z,13.32
2017-04-15T06:34:37.253Z,13.48
2017-04-15T06:35:17.667Z,13.48
2017-04-15T06:35:58.146Z,13.45
2017-04-15T06:36:38.590Z,13.15
2017-04-15T06:38:26.081Z,13.42
2017-04-15T06:39:06.544Z,13.49
2017-04-15T06:39:46.970Z,13.59
2017-04-15T06:40:27.453Z,13.63
2017-04-15T06:42:20.000Z,13.87
2017-04-15T06:43:00.449Z,14.25
2017-04-15T06:44:48.029Z,14.65
2017-04-15T06:45:28.500Z,14.58
2017-04-15T06:47:41.223Z,14.91
2017-04-15T06:48:21.635Z,15.17
2017-04-15T06:49:02.090Z,15.46
2017-04-15T06:49:42.516Z,15.47
2017-04-15T06:50:23.018Z,15.28
2017-04-15T06:51:03.465Z,15.16
2017-04-15T06:51:43.936Z,15.21
2017-04-15T06:53:56.723Z,15.64
2017-04-15T06:54:37.167Z,15.59
2017-04-15T06:55:17.648Z,15.6
2017-04-15T06:55:58.101Z,15.78
2017-04-15T06:56:38.562Z,15.62
2017-04-15T06:57:19.040Z,15.59
2017-04-15T06:57:59.462Z,16.12
2017-04-15T06:58:39.916Z,16.15
2017-04-15T06:59:20.354Z,16.2
2017-04-15T07:00:00.800Z,16.31
2017-04-15T07:00:41.277Z,16.34
2017-04-15T07:01:21.716Z,16.33
2017-04-15T07:02:02.156Z,16.41
2017-04-15T07:03:39.517Z,16.27
2017-04-15T07:04:19.989Z,16.07
2017-04-15T07:05:00.454Z,15.94
2017-04-15T07:05:40.920Z,15.82
2017-04-15T07:06:21.399Z,16.04
2017-04-15T07:07:01.896Z,16.31
2017-04-15T07:07:42.326Z,16.52
2017-04-15T07:08:22.773Z,16.75
2017-04-15T07:09:03.229Z,16.61
2017-04-15T07:09:43.693Z,16.93
2017-04-15T07:10:24.226Z,17.18
2017-04-15T07:11:04.694Z,17.44
2017-04-15T07:13:02.356Z,17.7
2017-04-15T07:13:42.812Z,17.54
2017-04-15T07:14:23.251Z,17.62
2017-04-15T07:15:03.659Z,17.48
2017-04-15T07:15:44.145Z,17.14
2017-04-15T07:16:24.627Z,17.31
2017-04-15T07:17:05.091Z,17.54
2017-04-15T07:17:45.561Z,17.77
2017-04-15T07:18:25.942Z,17.71
2017-04-15T07:19:06.378Z,17.43
2017-04-15T07:19:46.832Z,17.56
2017-04-15T07:20:27.288Z,17.89
2017-04-15T07:21:07.711Z,17.97
2017-04-15T07:21:48.143Z,17.86
2017-04-15T07:23:25.508Z,17.52
2017-04-15T07:24:06.530Z,17.89
2017-04-15T07:24:47.026Z,17.93
2017-04-15T07:25:27.455Z,17.89
2017-04-15T07:26:07.921Z,17.81
2017-04-15T07:26:48.377Z,17.48
2017-04-15T07:27:28.810Z,17.72
2017-04-15T07:29:21.379Z,17.71
2017-04-15T07:30:01.850Z,17.78
2017-04-15T07:30:42.316Z,17.87
2017-04-15T07:31:22.811Z,17.78
2017-04-15T07:32:03.322Z,18.08
2017-04-15T07:34:00.937Z,18.65
2017-04-15T07:34:41.415Z,18.5
2017-04-15T07:35:21.900Z,18.69
2017-04-15T07:36:02.353Z,18.75
2017-04-15T07:36:42.806Z,18.58
2017-04-15T07:37:23.282Z,18.63
2017-04-15T07:39:00.683Z,18.6
2017-04-15T07:39:41.151Z,18.81
2017-04-15T07:41:54.236Z,18.63
2017-04-15T07:42:34.514Z,18.36
2017-04-15T07:43:14.991Z,17.92
2017-04-15T07:43:55.478Z,18.25
2017-04-15T07:44:35.938Z,18.12
2017-04-15T07:45:16.400Z,18.1
2017-04-15T07:45:56.902Z,18.15
2017-04-15T07:48:09.667Z,17.52
2017-04-15T07:48:50.074Z,17.78
2017-04-15T07:49:30.524Z,17.93
2017-04-15T07:51:28.220Z,17.95
2017-04-15T07:52:08.651Z,17.99
2017-04-15T07:52:49.110Z,18.15
2017-04-15T07:54:36.593Z,18.65
2017-04-15T07:55:17.110Z,18.6
2017-04-15T07:55:57.540Z,18.48
2017-04-15T07:56:37.999Z,18.25
2017-04-15T07:58:25.470Z,18.42
2017-04-15T07:59:05.917Z,18.3
2017-04-15T07:59:46.382Z,18.26
2017-04-15T08:00:26.843Z,17.96
2017-04-15T08:01:07.334Z,18.08
2017-04-15T08:01:47.822Z,17.79
2017-04-15T08:02:28.301Z,17.11
2017-04-15T08:03:08.774Z,17.49
2017-04-15T08:05:02.187Z,17.25
2017-04-15T08:05:42.330Z,17.55
2017-04-15T08:06:22.825Z,17.62
2017-04-15T08:07:03.316Z,17.48
2017-04-15T08:07:43.775Z,17.44
2017-04-15T08:08:24.214Z,17.59
2017-04-15T08:09:04.661Z,17.52
2017-04-15T08:10:42.030Z,17.84
2017-04-15T08:11:22.485Z,17.64
2017-04-15T08:12:02.948Z,17.72
2017-04-15T08:12:43.435Z,17.52
2017-04-15T08:13:23.881Z,17.48
2017-04-15T08:14:04.346Z,17.55
2017-04-15T08:14:44.801Z,17.43
2017-04-15T08:15:25.258Z,17.48
2017-04-15T08:17:02.633Z,17.49
2017-04-15T08:17:43.089Z,17.54
2017-04-15T08:18:23.579Z,17.48
2017-04-15T08:19:04.558Z,17.52
2017-04-15T08:21:17.905Z,17.72
2017-04-15T08:21:58.739Z,17.81
2017-04-15T08:22:39.204Z,17.62
2017-04-15T08:23:19.676Z,17.54
2017-04-15T08:24:00.195Z,17.62
2017-04-15T08:24:40.680Z,17.81
2017-04-15T08:25:21.134Z,18.12
2017-04-15T08:26:01.599Z,17.96
2017-04-15T08:26:42.055Z,17.86
2017-04-15T08:27:22.504Z,17.86
2017-04-15T08:28:02.945Z,17.75
2017-04-15T08:28:43.430Z,17.97
2017-04-15T08:29:23.893Z,17.71
2017-04-15T08:31:11.426Z,17.87
2017-04-15T08:31:51.920Z,18.11
2017-04-15T08:32:32.384Z,18.12
2017-04-15T08:34:24.950Z,17.9
2017-04-15T08:35:05.419Z,17.81
2017-04-15T08:35:45.883Z,17.7
2017-04-15T08:36:26.385Z,17.72
2017-04-15T08:38:13.886Z,18.12
2017-04-15T08:38:54.352Z,18.14
2017-04-15T08:39:34.851Z,18.3
2017-04-15T08:40:15.342Z,18.26
2017-04-15T08:40:55.815Z,18.35
2017-04-15T08:41:36.287Z,18.29
2017-04-15T08:42:16.722Z,18.3
2017-04-15T08:42:57.193Z,18.47
2017-04-15T08:43:37.652Z,18.63
2017-04-15T08:44:18.064Z,18.58
2017-04-15T08:44:58.557Z,18.55
2017-04-15T08:45:39.010Z,18.25
2017-04-15T08:46:19.460Z,18.25
2017-04-15T08:46:59.879Z,18.02
2017-04-15T08:47:40.343Z,18.27
2017-04-15T08:48:20.786Z,18.35
2017-04-15T08:49:01.243Z,18.44
2017-04-15T08:49:41.701Z,18.6
2017-04-15T08:50:22.158Z,18.47
2017-04-15T08:51:02.603Z,18.65
2017-04-15T08:53:00.220Z,18.62
2017-04-15T08:53:40.702Z,18.51
2017-04-15T08:54:21.185Z,18.6
2017-04-15T08:55:01.687Z,18.69
2017-04-15T08:55:42.174Z,18.72
2017-04-15T08:57:55.271Z,18.45
2017-04-15T08:58:35.668Z,18.23
2017-04-15T08:59:16.146Z,18.26
2017-04-15T08:59:56.630Z,18.37
2017-04-15T09:00:37.133Z,18.33
2017-04-15T09:01:17.596Z,18.52
2017-04-15T09:01:58.053Z,18.54
2017-04-15T09:02:38.499Z,18.72
2017-04-15T09:03:18.966Z,18.94
2017-04-15T09:03:59.436Z,19.47
2017-04-15T09:04:39.933Z,19.43
2017-04-15T09:05:20.370Z,19.59
2017-04-15T09:06:57.747Z,18.98
2017-04-15T09:07:38.227Z,18.65
2017-04-15T09:08:18.715Z,18.51
2017-04-15T09:08:59.219Z,18.3
2017-04-15T09:09:39.711Z,18.07
2017-04-15T09:10:20.178Z,18.2
2017-04-15T09:11:57.556Z,18.58
2017-04-15T09:12:38.029Z,19.04
2017-04-15T09:13:18.531Z,19.1
2017-04-15T09:13:59.021Z,18.84
2017-04-15T09:14:39.482Z,18.87
2017-04-15T09:15:19.949Z,18.81
2017-04-15T09:16:00.434Z,18.54
2017-04-15T09:17:52.988Z,18.75
2017-04-15T09:18:33.486Z,18.72
2017-04-15T09:19:13.981Z,18.81
2017-04-15T09:19:54.455Z,18.69
2017-04-15T09:20:34.909Z,18.55
2017-04-15T09:22:48.029Z,18.65
2017-04-15T09:23:28.314Z,18.57
2017-04-15T09:24:08.770Z,18.65
2017-04-15T09:24:49.245Z,18.84
2017-04-15T09:27:01.944Z,18.47
2017-04-15T09:27:42.423Z,18.69
2017-04-15T09:28:22.878Z,18.95
2017-04-15T09:30:10.374Z,18.52
2017-04-15T09:30:50.839Z,18.37
2017-04-15T09:31:31.317Z,18.15
2017-04-15T09:32:11.821Z,17.95
2017-04-15T09:32:52.316Z,18.1
2017-04-15T09:33:32.792Z,18.03
2017-04-15T09:35:45.553Z,17.66
2017-04-15T09:36:26.024Z,17.75
2017-04-15T09:37:06.504Z,17.87
2017-04-15T09:37:46.996Z,18.05
2017-04-15T09:38:27.476Z,18.1
2017-04-15T09:39:07.959Z,18.36
2017-04-15T09:41:20.681Z,17.28
2017-04-15T09:42:01.190Z,17.44
2017-04-15T09:42:41.684Z,17.49
2017-04-15T09:43:22.182Z,17.68
2017-04-15T09:44:02.656Z,17.71
2017-04-15T09:44:43.154Z,17.93
2017-04-15T09:45:23.622Z,18.29
2017-04-15T09:46:04.064Z,18.41
2017-04-15T09:47:51.598Z,17.93
2017-04-15T09:48:32.050Z,18.03
2017-04-15T09:49:12.520Z,18.02
2017-04-15T09:49:52.977Z,17.89
2017-04-15T09:50:33.421Z,17.58
2017-04-15T09:51:13.880Z,17.37
2017-04-15T09:51:54.345Z,17.23
2017-04-15T09:52:34.818Z,17.54
2017-04-15T09:53:15.262Z,17.56
2017-04-15T09:53:55.713Z,17.7
2017-04-15T09:54:36.167Z,17.59
2017-04-15T09:55:16.630Z,17.71
2017-04-15T09:55:57.094Z,17.41
2017-04-15T09:56:37.522Z,17.62
2017-04-15T09:57:18.006Z,17.55
2017-04-15T09:57:58.435Z,17.49
2017-04-15T09:58:38.884Z,17.54
2017-04-15T10:00:52.195Z,17.95
2017-04-15T10:01:32.321Z,17.87
2017-04-15T10:02:12.811Z,17.97
2017-04-15T10:02:53.258Z,17.96
2017-04-15T10:04:30.628Z,17.74
2017-04-15T10:05:11.072Z,17.41
2017-04-15T10:05:51.558Z,17.08
2017-04-15T10:06:32.067Z,16.89
2017-04-15T10:07:12.571Z,16.68
2017-04-15T10:07:53.022Z,16.68
2017-04-15T10:09:31.166Z,16.86
2017-04-15T10:10:11.817Z,16.93
2017-04-15T10:10:52.286Z,16.89
2017-04-15T10:13:05.061Z,16.93
2017-04-15T10:13:45.428Z,17.12
2017-04-15T10:14:25.958Z,17.12
2017-04-15T10:15:06.461Z,17.06
2017-04-15T10:15:46.973Z,17.26
2017-04-15T10:16:27.441Z,17.56
2017-04-15T10:17:07.930Z,17.72
2017-04-15T10:17:48.431Z,17.71
2017-04-15T10:18:28.901Z,17.84
2017-04-15T10:19:09.416Z,17.74
2017-04-15T10:19:49.856Z,17.82
2017-04-15T10:20:30.299Z,17.75
2017-04-15T10:21:10.760Z,17.66
2017-04-15T10:21:51.202Z,17.72
2017-04-15T10:22:31.649Z,17.59
2017-04-15T10:23:12.111Z,17.64
2017-04-15T10:23:52.605Z,17.84
2017-04-15T10:25:41.236Z,17.78
2017-04-15T10:26:22.225Z,17.96
2017-04-15T10:27:02.683Z,17.99
2017-04-15T10:27:43.134Z,17.99
2017-04-15T10:28:23.615Z,18.02
2017-04-15T10:29:04.069Z,17.84
2017-04-15T10:31:16.804Z,18.08
2017-04-15T10:31:57.278Z,18.25
2017-04-15T10:32:37.740Z,18.48
2017-04-15T10:33:18.245Z,18.47
2017-04-15T10:33:58.710Z,18.75
2017-04-15T10:34:39.154Z,19.18
2017-04-15T10:35:19.613Z,18.98
2017-04-15T10:37:17.320Z,18.82
2017-04-15T10:37:57.822Z,18.67
2017-04-15T10:38:38.364Z,18.55
2017-04-15T10:39:18.809Z,18.58
2017-04-15T10:39:59.275Z,18.51
2017-04-15T10:40:39.760Z,18.66
2017-04-15T10:41:20.226Z,18.47
2017-04-15T10:42:00.713Z,18.57
2017-04-15T10:42:41.198Z,18.78
2017-04-15T10:43:21.648Z,18.72
2017-04-15T10:44:02.085Z,18.76
2017-04-15T10:44:42.538Z,18.57
2017-04-15T10:45:23.011Z,18.51
2017-04-15T10:47:15.549Z,18.5
2017-04-15T10:47:56.046Z,18.41
2017-04-15T10:48:36.528Z,18.57
2017-04-15T10:49:16.987Z,18.57